Time;durP1;ratioP1;P1;durP2;ratioP2;P2;SDS_P1;SDS_P2;PMS_P1;PMS_P2;Temp;Humidity;BMP_temperature;BMP_pressure;BME280_temperature;BME280_humidity;BME280_pressure;Samples;Min_cycle;Max_cycle;Signal;HPM_P1;HPM_P2
2022/05/05 00:00:28;;;;;;;8.70;8.10;;;11.70;99.90;;;;;;5084398;28;21033;-90
2022/05/05 00:02:55;;;;;;;8.83;8.23;;;11.50;99.90;;;;;;5086886;28;20642;-89
2022/05/05 00:05:22;;;;;;;9.20;8.37;;;11.50;99.90;;;;;;5087436;28;20628;-89
2022/05/05 00:07:48;;;;;;;10.03;9.27;;;11.50;99.90;;;;;;5077886;28;20663;-89
2022/05/05 00:15:46;;;;;;;10.30;9.50;;;11.20;99.90;;;;;;5082866;28;20962;-88
2022/05/05 00:18:13;;;;;;;12.20;11.20;;;11.40;99.90;;;;;;5081893;28;21193;-88
2022/05/05 00:20:39;;;;;;;10.00;9.13;;;11.40;99.90;;;;;;5080619;28;20649;-88
2022/05/05 00:23:06;;;;;;;10.60;9.63;;;11.40;99.90;;;;;;5080669;28;21251;-88
2022/05/05 00:25:34;;;;;;;11.20;10.40;;;11.00;99.90;;;;;;5081424;28;20625;-88
2022/05/05 00:28:01;;;;;;;10.97;10.00;;;11.30;99.90;;;;;;5079864;28;20703;-88
2022/05/05 00:30:29;;;;;;;9.77;9.17;;;11.30;99.90;;;;;;5078701;28;21449;-88
2022/05/05 00:32:55;;;;;;;10.37;9.67;;;11.00;99.90;;;;;;5081070;28;20636;-89
2022/05/05 00:35:22;;;;;;;10.57;9.77;;;11.00;99.90;;;;;;5079475;28;20624;-89
2022/05/05 00:37:49;;;;;;;11.27;10.37;;;11.00;99.90;;;;;;5079294;28;20616;-88
2022/05/05 00:40:16;;;;;;;12.30;11.20;;;11.10;99.90;;;;;;5078953;28;20650;-88
2022/05/05 00:42:44;;;;;;;11.33;10.53;;;11.30;99.90;;;;;;5083483;28;20643;-88
2022/05/05 00:45:11;;;;;;;11.07;10.30;;;11.30;99.90;;;;;;5080514;28;20616;-88
2022/05/05 00:47:38;;;;;;;10.63;9.80;;;11.10;99.90;;;;;;5082155;28;20676;-88
2022/05/05 00:50:06;;;;;;;11.70;10.77;;;10.90;99.90;;;;;;5078704;28;21023;-87
2022/05/05 00:52:33;;;;;;;12.37;11.37;;;11.40;99.90;;;;;;5080668;28;20653;-88
2022/05/05 00:55:01;;;;;;;12.50;11.57;;;10.90;99.90;;;;;;5078214;28;20654;-88
2022/05/05 00:57:29;;;;;;;12.03;11.00;;;11.10;99.90;;;;;;5081818;28;20654;-89
2022/05/05 00:59:58;;;;;;;13.73;12.27;;;11.20;99.90;;;;;;5084590;28;20659;-88
2022/05/05 01:02:25;;;;;;;12.43;11.63;;;11.00;99.90;;;;;;5085055;28;21251;-88
2022/05/05 01:04:52;;;;;;;12.27;11.37;;;11.20;99.90;;;;;;5086981;28;20650;-88
2022/05/05 01:07:21;;;;;;;14.57;13.37;;;11.20;99.90;;;;;;5079821;28;20622;-88
2022/05/05 01:09:50;;;;;;;12.63;11.73;;;10.80;99.90;;;;;;5076702;28;20709;-88
2022/05/05 01:12:17;;;;;;;14.03;12.93;;;10.90;99.90;;;;;;5081955;28;20635;-87
2022/05/05 01:14:44;;;;;;;14.40;13.40;;;10.90;99.90;;;;;;5080496;28;20909;-88
2022/05/05 01:17:14;;;;;;;13.37;12.47;;;11.20;99.90;;;;;;5080735;28;20821;-89
2022/05/05 01:19:40;;;;;;;14.20;13.10;;;11.30;99.90;;;;;;5080496;28;20655;-89
2022/05/05 01:22:09;;;;;;;15.73;14.63;;;11.00;99.90;;;;;;5078824;28;20627;-89
2022/05/05 01:30:06;;;;;;;16.67;15.47;;;11.00;99.90;;;;;;5080722;28;21221;-88
2022/05/05 01:32:34;;;;;;;15.37;14.27;;;11.30;99.90;;;;;;5085185;28;20812;-88
2022/05/05 01:35:01;;;;;;;15.30;14.20;;;10.80;99.90;;;;;;5089857;28;20671;-88
2022/05/05 01:37:29;;;;;;;16.40;15.10;;;11.10;99.90;;;;;;5084390;28;21205;-88
2022/05/05 01:39:56;;;;;;;16.10;15.00;;;11.10;99.90;;;;;;5087200;28;20652;-88
2022/05/05 01:42:23;;;;;;;17.30;15.70;;;11.30;99.90;;;;;;5085265;28;20684;-89
2022/05/05 01:44:50;;;;;;;16.30;14.90;;;10.90;99.90;;;;;;5083622;28;20624;-89
2022/05/05 01:47:17;;;;;;;16.03;14.87;;;11.20;99.90;;;;;;5083362;28;20973;-89
2022/05/05 01:49:45;;;;;;;17.13;15.93;;;11.40;99.90;;;;;;5083858;28;20682;-89
2022/05/05 01:52:12;;;;;;;17.83;16.47;;;11.20;99.90;;;;;;5082727;28;20619;-89
2022/05/05 01:54:40;;;;;;;16.50;15.30;;;11.40;99.90;;;;;;5085499;28;20632;-89
2022/05/05 01:57:07;;;;;;;16.50;15.20;;;11.10;99.90;;;;;;5085906;28;20624;-90
2022/05/05 01:59:35;;;;;;;14.93;13.83;;;11.60;99.90;;;;;;5081532;28;20734;-90
2022/05/05 02:02:04;;;;;;;16.67;15.30;;;11.00;99.90;;;;;;5086421;28;20632;-89
2022/05/05 02:04:31;;;;;;;16.20;14.90;;;11.30;99.90;;;;;;5082005;28;20628;-89
2022/05/05 02:06:57;;;;;;;16.97;15.53;;;11.10;99.90;;;;;;5079902;28;21186;-89
2022/05/05 02:09:24;;;;;;;17.40;16.00;;;11.10;99.90;;;;;;5078471;28;20665;-89
2022/05/05 02:11:53;;;;;;;15.47;14.17;;;11.10;99.90;;;;;;5087846;28;20719;-89
2022/05/05 02:14:21;;;;;;;16.23;14.83;;;11.40;99.90;;;;;;5084525;28;20719;-89
2022/05/05 02:16:48;;;;;;;16.67;15.23;;;11.00;99.90;;;;;;5082059;28;20623;-89
2022/05/05 02:19:15;;;;;;;15.90;14.70;;;11.10;99.90;;;;;;5083464;28;20619;-89
2022/05/05 02:21:42;;;;;;;16.67;15.40;;;11.40;99.90;;;;;;5078807;28;20625;-88
2022/05/05 02:24:08;;;;;;;15.27;13.97;;;11.40;99.90;;;;;;5086241;28;20624;-89
2022/05/05 02:26:37;;;;;;;16.80;15.60;;;11.20;99.90;;;;;;5084161;28;20630;-88
2022/05/05 02:29:05;;;;;;;15.27;14.17;;;11.40;99.90;;;;;;5081217;28;20663;-88
2022/05/05 02:31:34;;;;;;;16.50;15.00;;;11.30;99.90;;;;;;5086065;28;20675;-88
2022/05/05 02:34:03;;;;;;;15.53;14.43;;;11.00;99.90;;;;;;5079666;28;20628;-89
2022/05/05 02:39:14;;;;;;;16.00;14.70;;;10.90;99.90;;;;;;5087108;28;20588;-89
2022/05/05 02:41:40;;;;;;;17.07;15.37;;;10.90;99.90;;;;;;5084564;28;20620;-89
2022/05/05 02:44:08;;;;;;;18.50;15.50;;;11.30;99.90;;;;;;5085655;28;20620;-88
2022/05/05 02:46:35;;;;;;;16.57;15.27;;;10.80;99.90;;;;;;5085800;28;20987;-89
2022/05/05 02:49:02;;;;;;;17.20;15.90;;;11.10;99.90;;;;;;5084877;28;20660;-88
2022/05/05 02:51:29;;;;;;;15.83;14.67;;;10.70;99.90;;;;;;5084236;28;20647;-89
2022/05/05 02:56:40;;;;;;;15.23;14.10;;;10.50;99.90;;;;;;5081276;28;20697;-89
2022/05/05 02:59:08;;;;;;;15.43;14.23;;;10.50;99.90;;;;;;5086422;28;21092;-88
2022/05/05 03:01:35;;;;;;;14.50;13.40;;;10.40;99.90;;;;;;5083710;28;20656;-88
2022/05/05 03:04:01;;;;;;;15.70;14.60;;;10.40;99.90;;;;;;5078436;28;20648;-88
2022/05/05 03:06:28;;;;;;;15.67;14.30;;;10.40;99.90;;;;;;5083433;28;20628;-88
2022/05/05 03:08:56;;;;;;;17.37;15.97;;;10.20;99.90;;;;;;5080929;28;21229;-88
2022/05/05 03:11:23;;;;;;;16.23;15.13;;;10.20;99.90;;;;;;5082346;28;20679;-88
2022/05/05 03:13:49;;;;;;;16.23;14.80;;;10.70;99.90;;;;;;5082966;28;20620;-88
2022/05/05 03:16:17;;;;;;;16.13;14.93;;;10.60;99.90;;;;;;5085495;28;20624;-88
2022/05/05 03:18:44;;;;;;;15.90;14.80;;;10.20;99.90;;;;;;5084272;28;21129;-87
2022/05/05 03:21:11;;;;;;;16.80;15.40;;;10.20;99.90;;;;;;5081474;28;21016;-87
2022/05/05 03:23:38;;;;;;;16.60;15.40;;;10.00;99.90;;;;;;5079024;28;20627;-87
2022/05/05 03:26:04;;;;;;;16.83;15.63;;;9.90;99.90;;;;;;5083661;28;20631;-88
2022/05/05 03:28:31;;;;;;;17.23;15.73;;;10.10;99.90;;;;;;5083723;28;21364;-87
2022/05/05 03:30:58;;;;;;;18.83;17.23;;;10.30;99.90;;;;;;5080945;28;20709;-87
2022/05/05 03:33:26;;;;;;;20.47;18.43;;;9.80;99.90;;;;;;5077811;28;20648;-87
2022/05/05 03:35:53;;;;;;;19.43;18.13;;;9.90;99.90;;;;;;5081378;28;20624;-87
2022/05/05 03:38:20;;;;;;;19.90;18.60;;;10.10;99.90;;;;;;5084657;28;20636;-88
2022/05/05 03:40:47;;;;;;;19.03;17.70;;;10.30;99.90;;;;;;5080270;28;20644;-88
2022/05/05 03:43:14;;;;;;;19.90;18.20;;;10.20;99.90;;;;;;5084111;28;20642;-89
2022/05/05 03:45:41;;;;;;;18.60;17.20;;;9.70;99.90;;;;;;5082860;28;21195;-89
2022/05/05 03:48:08;;;;;;;19.57;17.97;;;10.20;99.90;;;;;;5084540;28;20595;-89
2022/05/05 03:50:37;;;;;;;18.60;17.30;;;10.40;99.90;;;;;;5083490;28;20652;-88
2022/05/05 03:53:04;;;;;;;18.70;17.30;;;9.80;99.90;;;;;;5078105;28;20636;-88
2022/05/05 03:55:30;;;;;;;18.13;16.77;;;9.70;99.90;;;;;;5080322;28;21249;-89
2022/05/05 03:57:57;;;;;;;17.67;16.40;;;10.00;99.90;;;;;;5084297;28;20632;-88
2022/05/05 04:00:24;;;;;;;18.90;17.60;;;10.00;99.90;;;;;;5080895;28;20644;-89
2022/05/05 04:05:33;;;;;;;18.73;17.40;;;10.40;99.90;;;;;;5078174;28;20966;-88
2022/05/05 04:08:01;;;;;;;19.40;18.03;;;9.90;99.90;;;;;;5084565;28;20675;-88
2022/05/05 04:10:28;;;;;;;21.53;19.57;;;10.40;99.90;;;;;;5077450;28;20687;-87
2022/05/05 04:12:55;;;;;;;21.30;19.60;;;10.60;99.90;;;;;;5079299;28;20624;-88
2022/05/05 04:15:22;;;;;;;19.10;17.50;;;10.40;99.90;;;;;;5080986;28;20651;-88
2022/05/05 04:17:49;;;;;;;20.33;18.83;;;10.60;99.90;;;;;;5082103;28;20668;-88
2022/05/05 04:20:16;;;;;;;21.13;19.70;;;10.50;99.90;;;;;;5084037;28;20644;-88
2022/05/05 04:22:43;;;;;;;21.93;20.23;;;10.60;99.90;;;;;;5080694;28;20609;-88
2022/05/05 04:25:12;;;;;;;20.40;18.90;;;10.50;99.90;;;;;;5080317;28;20623;-88
2022/05/05 04:27:40;;;;;;;21.23;19.70;;;10.90;99.90;;;;;;5081780;28;20965;-88
2022/05/05 04:30:10;;;;;;;21.90;20.23;;;11.00;99.90;;;;;;5080413;28;20702;-88
2022/05/05 04:32:37;;;;;;;23.47;21.77;;;11.10;99.90;;;;;;5081649;28;20991;-87
2022/05/05 04:35:05;;;;;;;21.57;19.87;;;10.80;99.90;;;;;;5078212;28;21190;-87
2022/05/05 04:37:32;;;;;;;20.40;18.90;;;11.20;99.90;;;;;;5083539;28;20632;-87
2022/05/05 04:39:58;;;;;;;20.93;19.27;;;11.20;99.90;;;;;;5076956;28;20664;-86
2022/05/05 04:42:27;;;;;;;20.13;18.60;;;11.00;99.90;;;;;;5084163;28;20657;-86
2022/05/05 04:44:54;;;;;;;19.37;17.90;;;11.30;99.90;;;;;;5081202;28;20631;-86
2022/05/05 04:47:20;;;;;;;20.20;18.70;;;11.10;99.90;;;;;;5084921;28;20629;-86
2022/05/05 04:49:47;;;;;;;18.37;16.97;;;11.20;99.90;;;;;;5081512;28;20676;-86
2022/05/05 04:52:14;;;;;;;17.80;16.40;;;11.40;99.90;;;;;;5084220;28;20627;-86
2022/05/05 04:54:41;;;;;;;18.50;17.10;;;11.10;99.90;;;;;;5078547;28;20631;-85
2022/05/05 04:57:08;;;;;;;21.17;19.37;;;11.60;99.90;;;;;;5081016;28;20639;-86
2022/05/05 04:59:36;;;;;;;17.60;16.30;;;11.30;99.90;;;;;;5083915;28;20640;-86
2022/05/05 05:02:03;;;;;;;18.60;17.10;;;11.30;99.90;;;;;;5084685;28;20682;-87
2022/05/05 05:04:30;;;;;;;17.97;16.50;;;11.50;99.90;;;;;;5085415;28;20962;-86
2022/05/05 05:07:03;;;;;;;17.00;15.80;;;11.50;99.90;;;;;;5084077;28;20619;-87
2022/05/05 05:09:31;;;;;;;18.07;16.57;;;11.80;99.90;;;;;;5077389;28;20672;-88
2022/05/05 05:11:58;;;;;;;16.17;14.87;;;11.70;99.90;;;;;;5080216;28;20642;-87
2022/05/05 05:14:25;;;;;;;17.33;15.80;;;11.50;99.90;;;;;;5082583;28;20631;-87
2022/05/05 05:16:53;;;;;;;16.67;15.43;;;11.50;99.90;;;;;;5083575;28;20612;-87
2022/05/05 05:19:20;;;;;;;15.23;14.20;;;11.90;99.90;;;;;;5082538;28;20619;-86
2022/05/05 05:21:47;;;;;;;16.77;15.47;;;12.10;99.90;;;;;;5083145;28;20635;-86
2022/05/05 05:24:15;;;;;;;16.50;15.30;;;11.80;99.90;;;;;;5079240;28;20621;-87
2022/05/05 05:26:53;;;;;;;18.37;16.67;;;12.20;99.90;;;;;;5077045;28;20628;-86
2022/05/05 05:29:20;;;;;;;17.40;16.00;;;12.20;99.90;;;;;;5080872;28;20656;-86
2022/05/05 05:31:47;;;;;;;17.03;15.73;;;12.40;99.90;;;;;;5084024;28;21174;-86
2022/05/05 05:34:15;;;;;;;16.70;15.40;;;12.40;99.90;;;;;;5079975;28;20600;-87
2022/05/05 05:36:42;;;;;;;16.77;15.57;;;12.40;99.90;;;;;;5082431;28;20628;-86
2022/05/05 05:39:09;;;;;;;16.47;15.07;;;12.20;99.90;;;;;;5082219;28;20731;-86
2022/05/05 05:41:36;;;;;;;17.07;15.67;;;12.40;99.90;;;;;;5082896;28;21219;-86
2022/05/05 05:44:02;;;;;;;15.27;14.07;;;12.50;99.90;;;;;;5083258;28;20620;-86
2022/05/05 05:46:29;;;;;;;14.73;13.60;;;12.40;99.90;;;;;;5080110;28;20638;-86
2022/05/05 05:48:56;;;;;;;15.87;14.57;;;12.50;99.90;;;;;;5080587;28;20648;-86
2022/05/05 05:51:25;;;;;;;14.93;13.73;;;12.50;99.90;;;;;;5082420;28;20655;-87
2022/05/05 05:53:53;;;;;;;15.73;14.63;;;12.50;99.90;;;;;;5082976;28;20794;-85
2022/05/05 05:56:19;;;;;;;15.00;13.70;;;12.60;99.90;;;;;;5085036;28;20683;-86
2022/05/05 05:58:46;;;;;;;14.90;13.70;;;12.70;99.90;;;;;;5082205;28;20610;-86
2022/05/05 06:01:13;;;;;;;15.40;14.23;;;12.60;99.90;;;;;;5083749;28;20765;-86
2022/05/05 06:03:54;;;;;;;20.27;18.57;;;12.30;99.90;;;;;;5083406;28;20679;-86
2022/05/05 06:06:20;;;;;;;16.87;15.47;;;12.60;99.90;;;;;;5081971;28;20628;-87
2022/05/05 06:08:49;;;;;;;16.93;15.60;;;12.50;99.90;;;;;;5082754;28;20616;-86
2022/05/05 06:11:18;;;;;;;14.67;13.57;;;13.00;99.90;;;;;;5082498;28;21190;-87
2022/05/05 06:13:45;;;;;;;14.97;13.77;;;12.90;99.90;;;;;;5085526;28;20636;-86
2022/05/05 06:16:12;;;;;;;15.10;13.70;;;12.90;99.90;;;;;;5079479;28;21430;-87
2022/05/05 06:18:39;;;;;;;14.87;13.67;;;12.70;99.90;;;;;;5086158;28;20631;-86
2022/05/05 06:21:07;;;;;;;16.27;14.87;;;13.00;99.90;;;;;;5087576;28;20667;-86
2022/05/05 06:23:34;;;;;;;15.83;14.63;;;13.00;99.90;;;;;;5085814;28;20657;-86
2022/05/05 06:26:02;;;;;;;13.83;12.80;;;13.00;99.90;;;;;;5084025;28;20639;-86
2022/05/05 06:28:29;;;;;;;14.30;13.20;;;13.00;99.90;;;;;;5081959;28;20636;-86
2022/05/05 06:30:56;;;;;;;14.70;13.40;;;12.90;99.90;;;;;;5087674;28;20676;-86
2022/05/05 06:33:23;;;;;;;13.93;12.93;;;13.20;99.90;;;;;;5087699;28;20596;-86
2022/05/05 06:35:50;;;;;;;14.30;12.80;;;13.30;99.90;;;;;;5080922;28;20612;-86
2022/05/05 06:38:17;;;;;;;13.80;12.70;;;13.10;99.90;;;;;;5078420;28;20624;-86
2022/05/05 06:40:45;;;;;;;14.03;12.93;;;13.20;99.90;;;;;;5081900;28;20659;-86
2022/05/05 06:43:13;;;;;;;14.57;13.30;;;13.20;99.90;;;;;;5087260;28;21097;-87
2022/05/05 06:45:40;;;;;;;15.77;14.57;;;13.20;99.90;;;;;;5085608;28;20628;-87
2022/05/05 06:48:07;;;;;;;15.10;13.90;;;13.40;99.90;;;;;;5082929;28;20758;-87
2022/05/05 06:50:34;;;;;;;13.90;12.80;;;13.40;99.90;;;;;;5076358;28;20713;-86
2022/05/05 06:53:02;;;;;;;14.73;13.47;;;13.50;99.90;;;;;;5084341;28;20585;-86
2022/05/05 06:55:29;;;;;;;14.33;13.23;;;13.60;99.90;;;;;;5083215;28;20639;-85
2022/05/05 06:57:55;;;;;;;14.47;13.40;;;13.70;99.90;;;;;;5087567;28;20635;-86
2022/05/05 07:00:24;;;;;;;13.53;12.53;;;13.70;99.90;;;;;;5086514;28;20655;-87
2022/05/05 07:02:51;;;;;;;13.03;12.13;;;13.80;99.90;;;;;;5085402;28;20643;-87
2022/05/05 07:05:28;;;;;;;13.60;12.40;;;13.90;99.90;;;;;;5088748;28;21033;-87
2022/05/05 07:07:55;;;;;;;14.23;13.23;;;14.10;99.90;;;;;;5086846;28;20627;-87
2022/05/05 07:13:06;;;;;;;13.17;12.07;;;14.20;99.90;;;;;;5083221;28;20668;-88
2022/05/05 07:15:35;;;;;;;14.20;13.17;;;14.30;99.90;;;;;;5088534;28;20624;-89
2022/05/05 07:18:04;;;;;;;15.47;14.37;;;14.40;99.90;;;;;;5083294;28;20639;-91
2022/05/05 07:20:31;;;;;;;13.63;12.63;;;14.40;99.90;;;;;;5084421;28;20700;-90
2022/05/05 07:22:58;;;;;;;14.30;13.17;;;14.60;99.90;;;;;;5080670;28;20720;-91
2022/05/05 07:25:24;;;;;;;13.10;12.00;;;14.60;99.90;;;;;;5085413;28;20631;-91
2022/05/05 07:27:51;;;;;;;15.63;14.23;;;14.70;99.90;;;;;;5083388;28;21217;-91
2022/05/05 07:30:19;;;;;;;14.63;13.33;;;14.70;99.90;;;;;;5083443;28;20702;-90
2022/05/05 07:32:48;;;;;;;16.13;14.73;;;14.80;99.90;;;;;;5086383;28;20658;-91
2022/05/05 07:35:17;;;;;;;14.57;13.37;;;14.80;99.90;;;;;;5082578;28;20632;-89
2022/05/05 07:37:44;;;;;;;14.43;13.30;;;14.90;99.90;;;;;;5083160;28;20644;-89
2022/05/05 07:40:12;;;;;;;14.67;13.57;;;15.00;99.90;;;;;;5081202;28;20988;-90
2022/05/05 07:42:41;;;;;;;13.37;12.33;;;15.00;99.90;;;;;;5085263;28;20634;-89
2022/05/05 07:45:09;;;;;;;12.80;11.90;;;15.10;99.90;;;;;;5081044;28;20634;-90
2022/05/05 07:47:35;;;;;;;12.37;10.80;;;15.20;99.90;;;;;;5082409;28;20617;-90
2022/05/05 07:50:05;;;;;;;13.53;12.53;;;15.30;99.90;;;;;;5082859;28;20673;-89
2022/05/05 07:52:31;;;;;;;14.27;13.03;;;15.30;99.90;;;;;;5078421;28;20646;-90
2022/05/05 07:54:58;;;;;;;12.53;11.40;;;15.40;99.90;;;;;;5085786;28;20643;-89
2022/05/05 07:57:25;;;;;;;13.60;12.50;;;15.40;99.90;;;;;;5084711;28;20743;-90
2022/05/05 07:59:53;;;;;;;12.97;11.77;;;15.40;99.90;;;;;;5082868;28;20672;-89
2022/05/05 08:02:20;;;;;;;13.20;12.10;;;15.50;99.90;;;;;;5088421;28;20689;-90
2022/05/05 08:04:49;;;;;;;14.03;12.83;;;15.50;99.90;;;;;;5081115;28;20636;-88
2022/05/05 08:07:17;;;;;;;13.40;12.40;;;15.40;99.90;;;;;;5081886;28;20629;-88
2022/05/05 08:09:43;;;;;;;13.90;12.80;;;15.30;99.90;;;;;;5081258;28;20683;-88
2022/05/05 08:12:11;;;;;;;14.43;13.40;;;15.30;99.90;;;;;;5084408;28;20631;-87
2022/05/05 08:14:39;;;;;;;13.90;12.73;;;15.30;99.90;;;;;;5080379;28;20631;-89
2022/05/05 08:17:06;;;;;;;13.20;12.20;;;15.30;99.90;;;;;;5078062;28;20624;-88
2022/05/05 08:19:32;;;;;;;13.73;12.63;;;15.30;99.90;;;;;;5080918;28;21230;-88
2022/05/05 08:21:59;;;;;;;12.93;12.03;;;15.30;99.90;;;;;;5074175;28;21073;-87
2022/05/05 08:30:03;;;;;;;12.93;11.93;;;15.50;99.90;;;;;;5074656;28;20683;-88
2022/05/05 08:32:30;;;;;;;13.07;11.93;;;15.60;99.90;;;;;;5076370;28;20632;-87
2022/05/05 08:34:59;;;;;;;13.90;12.90;;;15.60;99.90;;;;;;5083234;28;20577;-88
2022/05/05 08:37:27;;;;;;;12.87;11.77;;;15.70;99.90;;;;;;5082928;28;20636;-88
2022/05/05 08:39:55;;;;;;;14.87;13.87;;;15.90;99.90;;;;;;5078305;28;21012;-89
2022/05/05 08:42:24;;;;;;;13.37;12.37;;;16.10;99.90;;;;;;5080167;28;20632;-89
2022/05/05 08:44:50;;;;;;;13.90;12.80;;;16.20;99.90;;;;;;5076736;28;20633;-88
2022/05/05 08:47:22;;;;;;;13.10;12.00;;;16.30;99.90;;;;;;5076960;28;20639;-88
2022/05/05 08:49:49;;;;;;;14.40;13.20;;;16.50;99.90;;;;;;5074340;28;20652;-89
2022/05/05 08:52:22;;;;;;;14.23;13.13;;;16.40;99.90;;;;;;5081301;28;20584;-88
2022/05/05 08:54:49;;;;;;;12.23;11.23;;;16.50;99.90;;;;;;5076774;28;20628;-88
2022/05/05 08:57:17;;;;;;;13.10;12.10;;;16.40;99.90;;;;;;5078543;28;21206;-88
2022/05/05 08:59:44;;;;;;;13.67;12.30;;;16.40;99.90;;;;;;5084796;28;20662;-88
2022/05/05 09:02:11;;;;;;;12.33;11.50;;;16.50;99.90;;;;;;5081660;28;20747;-89
2022/05/05 09:04:38;;;;;;;12.57;11.57;;;16.50;99.90;;;;;;5078224;28;20652;-88
2022/05/05 09:07:05;;;;;;;13.30;12.30;;;16.60;99.90;;;;;;5083604;28;20654;-89
2022/05/05 09:09:34;;;;;;;13.60;12.50;;;16.50;99.90;;;;;;5083829;28;20657;-90
2022/05/05 09:12:09;;;;;;;13.33;12.37;;;16.40;99.90;;;;;;5072712;28;20645;-90
2022/05/05 09:14:39;;;;;;;12.80;11.90;;;16.40;99.90;;;;;;5085990;28;20623;-89
2022/05/05 09:17:10;;;;;;;14.90;13.60;;;16.40;99.90;;;;;;5080205;28;20617;-89
2022/05/05 09:19:38;;;;;;;15.40;14.03;;;16.30;99.90;;;;;;5083686;28;20654;-89
2022/05/05 09:22:06;;;;;;;15.00;13.50;;;16.30;99.90;;;;;;5073398;28;20623;-89
2022/05/05 09:24:40;;;;;;;13.30;12.37;;;16.40;99.90;;;;;;5084901;28;20628;-89
2022/05/05 09:27:22;;;;;;;13.93;12.73;;;16.40;99.90;;;;;;5078085;28;20613;-88
2022/05/05 09:30:09;;;;;;;14.70;13.60;;;16.40;99.90;;;;;;5071344;28;20648;-89
2022/05/05 09:32:38;;;;;;;15.73;14.27;;;16.40;99.90;;;;;;5083389;28;20616;-88
2022/05/05 09:35:09;;;;;;;14.90;13.70;;;16.30;99.90;;;;;;5077873;28;20731;-88
2022/05/05 09:37:36;;;;;;;14.67;13.67;;;16.30;99.90;;;;;;5080507;28;21288;-88
2022/05/05 09:40:06;;;;;;;14.13;13.13;;;16.20;99.90;;;;;;5081752;28;20620;-91
2022/05/05 09:42:42;;;;;;;15.03;13.80;;;16.30;99.90;;;;;;5090833;28;20632;-89
2022/05/05 09:45:21;;;;;;;16.00;14.80;;;16.40;99.90;;;;;;5086869;28;20678;-89
2022/05/05 09:47:51;;;;;;;16.00;14.77;;;16.40;99.90;;;;;;5080048;28;20667;-89
2022/05/05 09:50:20;;;;;;;16.40;14.97;;;16.40;99.90;;;;;;5082758;28;20782;-88
2022/05/05 09:58:18;;;;;;;16.30;15.00;;;16.20;99.90;;;;;;5076693;28;21174;-88
2022/05/05 10:00:57;;;;;;;17.70;16.40;;;16.20;99.90;;;;;;5082154;28;20612;-88
2022/05/05 10:06:22;;;;;;;18.93;17.53;;;16.20;99.90;;;;;;5084842;28;20880;-88
2022/05/05 10:08:53;;;;;;;18.17;16.47;;;16.20;99.90;;;;;;5075938;28;20958;-89
2022/05/05 10:11:21;;;;;;;18.77;17.27;;;16.20;99.90;;;;;;5074431;28;20748;-90
2022/05/05 10:13:49;;;;;;;20.50;18.67;;;16.20;99.90;;;;;;5077457;28;21153;-90
2022/05/05 10:16:20;;;;;;;19.83;18.23;;;16.20;99.90;;;;;;5080445;28;20726;-90
2022/05/05 10:18:50;;;;;;;19.03;17.53;;;16.20;99.90;;;;;;5082247;28;21205;-90
2022/05/05 10:21:31;;;;;;;18.67;17.17;;;16.20;99.90;;;;;;5083276;28;20803;-90
2022/05/05 10:24:06;;;;;;;18.47;16.80;;;16.20;99.90;;;;;;5079223;28;20625;-90
2022/05/05 10:26:33;;;;;;;19.13;17.63;;;16.30;99.90;;;;;;5076117;28;20736;-89
2022/05/05 10:29:01;;;;;;;19.87;18.40;;;16.20;99.90;;;;;;5086064;28;20644;-90
2022/05/05 10:31:47;;;;;;;18.30;16.80;;;16.30;99.90;;;;;;5089079;28;20764;-89
2022/05/05 10:34:16;;;;;;;21.10;19.00;;;16.20;99.90;;;;;;5082534;28;20649;-89
2022/05/05 10:37:02;;;;;;;19.50;18.00;;;16.20;99.90;;;;;;5079713;28;20632;-90
2022/05/05 10:39:44;;;;;;;19.37;17.83;;;16.30;99.90;;;;;;5081039;28;20624;-89
2022/05/05 10:42:16;;;;;;;19.07;17.20;;;16.30;99.90;;;;;;5088324;28;20666;-90
2022/05/05 10:45:05;;;;;;;17.10;15.60;;;16.30;99.90;;;;;;5080802;28;21535;-91
2022/05/05 10:48:16;;;;;;;18.60;17.27;;;16.40;99.90;;;;;;5077784;28;20717;-91
2022/05/05 10:50:56;;;;;;;19.33;17.90;;;16.40;99.90;;;;;;5089829;28;21020;-91
2022/05/05 10:53:32;;;;;;;20.40;18.60;;;16.40;99.90;;;;;;5085418;28;20710;-91
2022/05/05 10:56:02;;;;;;;19.97;18.20;;;16.40;99.90;;;;;;5084441;28;21225;-91
2022/05/05 10:58:57;;;;;;;20.43;18.50;;;16.40;99.90;;;;;;5089001;28;20873;-90
2022/05/05 11:01:27;;;;;;;19.67;17.80;;;16.30;99.90;;;;;;5085731;28;20607;-90
2022/05/05 11:04:23;;;;;;;20.40;18.63;;;16.40;99.90;;;;;;5091688;28;20639;-90
2022/05/05 11:07:36;;;;;;;22.00;20.10;;;16.50;99.90;;;;;;5082491;28;20632;-90
2022/05/05 11:10:05;;;;;;;21.30;19.40;;;16.40;99.90;;;;;;5085832;28;20643;-90
2022/05/05 11:12:34;;;;;;;19.33;17.83;;;16.40;99.90;;;;;;5084775;28;20664;-89
2022/05/05 11:23:42;;;;;;;20.33;18.73;;;16.40;99.90;;;;;;5080213;28;20729;-89
2022/05/05 11:26:10;;;;;;;19.53;17.97;;;16.40;99.90;;;;;;5078147;28;20624;-89
2022/05/05 11:28:37;;;;;;;21.00;19.23;;;16.40;99.90;;;;;;5080176;28;20751;-89
2022/05/05 11:31:04;;;;;;;20.93;19.13;;;16.50;99.90;;;;;;5081450;28;20698;-89
2022/05/05 11:33:36;;;;;;;21.33;19.63;;;16.50;99.90;;;;;;5083415;28;20639;-89
2022/05/05 11:36:06;;;;;;;19.10;17.10;;;16.50;99.90;;;;;;5081681;28;20669;-89
2022/05/05 11:38:42;;;;;;;22.77;20.87;;;16.60;99.90;;;;;;5081951;28;20662;-90
2022/05/05 11:41:11;;;;;;;21.53;19.67;;;16.60;99.90;;;;;;5079403;28;20620;-89
2022/05/05 11:46:24;;;;;;;21.60;19.90;;;16.70;99.90;;;;;;5079603;28;20978;-89
2022/05/05 11:48:56;;;;;;;22.53;20.70;;;16.70;99.90;;;;;;5079276;28;20739;-90
2022/05/05 11:51:28;;;;;;;19.97;18.07;;;16.70;99.90;;;;;;5083212;28;21199;-89
2022/05/05 11:54:06;;;;;;;21.47;19.87;;;16.80;99.90;;;;;;5080541;28;20689;-91
2022/05/05 11:56:34;;;;;;;21.00;19.00;;;16.80;99.90;;;;;;5077758;28;20619;-90
2022/05/05 12:02:05;;;;;;;20.80;18.83;;;17.20;99.90;;;;;;5083512;28;20627;-90
2022/05/05 12:04:34;;;;;;;23.17;21.10;;;17.30;99.90;;;;;;5081651;28;20618;-90
2022/05/05 12:07:02;;;;;;;23.40;21.37;;;17.50;99.90;;;;;;5083121;28;20635;-89
2022/05/05 12:09:30;;;;;;;22.60;20.90;;;17.70;99.90;;;;;;5087616;28;21152;-89
2022/05/05 12:11:57;;;;;;;20.90;19.30;;;18.10;99.90;;;;;;5087914;28;20668;-89
2022/05/05 12:14:24;;;;;;;20.50;18.77;;;18.20;99.90;;;;;;5079379;28;20629;-89
2022/05/05 12:16:52;;;;;;;22.20;20.30;;;18.50;99.90;;;;;;5081251;28;20632;-89
2022/05/05 12:19:21;;;;;;;22.30;20.60;;;18.70;99.90;;;;;;5076593;28;20617;-90
2022/05/05 12:21:56;;;;;;;22.37;20.67;;;18.80;99.90;;;;;;5079189;28;20677;-89
2022/05/05 12:24:24;;;;;;;20.50;19.07;;;18.70;99.90;;;;;;5078000;28;20667;-88
2022/05/05 12:27:07;;;;;;;21.13;19.33;;;18.70;99.90;;;;;;5076150;28;20623;-89
2022/05/05 12:29:39;;;;;;;22.90;21.10;;;18.80;99.90;;;;;;5079811;28;21528;-88
2022/05/05 12:32:10;;;;;;;23.80;21.60;;;18.80;99.90;;;;;;5081555;28;20668;-89
2022/05/05 12:34:39;;;;;;;22.90;20.93;;;18.70;99.90;;;;;;5083421;28;20627;-89
2022/05/05 12:37:14;;;;;;;23.23;21.43;;;18.50;99.90;;;;;;5090848;28;20689;-88
2022/05/05 12:39:57;;;;;;;22.33;20.47;;;18.30;99.90;;;;;;5080111;28;20704;-88
2022/05/05 12:42:38;;;;;;;24.67;22.57;;;18.30;99.90;;;;;;5073304;28;21171;-88
2022/05/05 12:45:06;;;;;;;23.17;21.47;;;18.40;99.90;;;;;;5076843;28;20708;-89
2022/05/05 12:47:33;;;;;;;24.90;22.70;;;18.50;99.90;;;;;;5082444;28;20685;-89
2022/05/05 12:50:00;;;;;;;22.90;21.10;;;18.80;99.90;;;;;;5078255;28;20628;-89
2022/05/05 13:00:53;;;;;;;20.80;19.07;;;20.80;99.90;;;;;;5079484;28;20587;-89
2022/05/05 13:03:21;;;;;;;19.90;18.30;;;20.90;99.90;;;;;;5078683;28;20993;-89
2022/05/05 13:05:49;;;;;;;23.93;21.83;;;21.10;99.90;;;;;;5078320;28;20716;-89
2022/05/05 13:08:16;;;;;;;23.40;21.13;;;21.10;99.90;;;;;;5075943;28;20686;-89
2022/05/05 13:10:43;;;;;;;21.77;20.10;;;21.00;99.90;;;;;;5074982;28;20631;-89
2022/05/05 13:13:12;;;;;;;21.57;19.87;;;21.20;99.90;;;;;;5081063;28;20751;-89
2022/05/05 13:15:39;;;;;;;20.90;18.97;;;21.10;99.90;;;;;;5080114;28;20587;-89
2022/05/05 13:18:07;;;;;;;19.90;18.40;;;21.10;99.90;;;;;;5079619;28;21465;-89
2022/05/05 13:20:34;;;;;;;20.20;18.50;;;21.20;99.90;;;;;;5083912;28;20628;-89
2022/05/05 13:23:03;;;;;;;20.93;19.20;;;21.30;99.90;;;;;;5082757;28;20635;-90
2022/05/05 13:25:32;;;;;;;21.50;19.60;;;21.30;99.90;;;;;;5084369;28;20654;-89
2022/05/05 13:28:00;;;;;;;23.20;21.30;;;21.30;99.90;;;;;;5079311;28;21009;-90
2022/05/05 13:30:29;;;;;;;22.20;20.10;;;21.10;99.90;;;;;;5081422;28;20623;-89
2022/05/05 13:32:56;;;;;;;21.10;19.30;;;21.00;99.90;;;;;;5077217;28;20653;-89
2022/05/05 13:35:23;;;;;;;21.63;19.83;;;21.20;99.90;;;;;;5082549;28;20630;-89